Time;durP1;ratioP1;P1;durP2;ratioP2;P2;SDS_P1;SDS_P2;PMS_P1;PMS_P2;Temp;Humidity;BMP_temperature;BMP_pressure;BME280_temperature;BME280_humidity;BME280_pressure;Samples;Min_cycle;Max_cycle;Signal;HPM_P1;HPM_P2
2022/04/13 00:01:55;;;;;;;21.17;19.35;;;11.80;99.90;;;;;;4966074;28;20053;-75
2022/04/13 00:04:22;;;;;;;21.35;19.40;;;11.80;99.90;;;;;;4985129;28;20050;-73
2022/04/13 00:06:49;;;;;;;20.13;18.83;;;11.90;99.90;;;;;;4968780;28;20042;-74
2022/04/13 00:09:16;;;;;;;20.42;19.10;;;11.80;99.90;;;;;;4966968;28;20566;-74
2022/04/13 00:11:42;;;;;;;20.33;18.88;;;11.90;99.90;;;;;;4983161;28;20046;-74
2022/04/13 00:14:09;;;;;;;19.98;18.67;;;11.90;99.90;;;;;;4987535;28;20601;-74
2022/04/13 00:16:37;;;;;;;20.73;19.17;;;12.00;99.90;;;;;;4976427;28;20053;-74
2022/04/13 00:19:03;;;;;;;21.80;20.17;;;11.90;99.90;;;;;;4968966;28;20050;-74
2022/04/13 00:21:30;;;;;;;20.55;19.13;;;12.00;99.90;;;;;;4958516;28;20050;-74
2022/04/13 00:23:57;;;;;;;20.52;19.00;;;11.90;99.90;;;;;;4966495;28;20758;-74
2022/04/13 00:26:24;;;;;;;20.55;19.08;;;11.90;99.90;;;;;;4981967;28;20167;-74
2022/04/13 00:28:51;;;;;;;19.95;18.70;;;12.00;99.90;;;;;;4983481;28;20200;-74
2022/04/13 00:31:17;;;;;;;20.38;18.88;;;12.10;99.90;;;;;;4966250;28;20050;-74
2022/04/13 00:33:44;;;;;;;20.65;19.10;;;12.20;99.90;;;;;;4985053;28;20042;-74
2022/04/13 00:36:11;;;;;;;19.92;18.65;;;12.10;99.90;;;;;;4983399;28;20042;-75
2022/04/13 00:38:38;;;;;;;19.63;18.42;;;11.90;99.90;;;;;;4983858;28;20047;-74
2022/04/13 00:41:04;;;;;;;20.55;19.02;;;11.90;99.90;;;;;;4965188;28;20046;-75
2022/04/13 00:43:31;;;;;;;19.00;17.80;;;11.90;99.90;;;;;;4988160;28;20455;-74
2022/04/13 00:45:58;;;;;;;19.35;18.02;;;11.90;99.90;;;;;;4983255;28;20046;-74
2022/04/13 00:48:39;;;;;;;19.90;18.60;;;11.90;99.90;;;;;;4984002;28;20061;-74
2022/04/13 00:51:07;;;;;;;20.17;18.88;;;12.00;99.90;;;;;;4982816;28;20074;-74
2022/04/13 00:53:35;;;;;;;19.92;18.80;;;11.90;99.90;;;;;;4965696;28;20061;-74
2022/04/13 00:56:04;;;;;;;19.60;18.50;;;11.90;99.90;;;;;;4982389;28;20088;-75
2022/04/13 00:58:37;;;;;;;20.55;19.13;;;11.80;99.90;;;;;;4974292;28;20550;-75
2022/04/13 01:01:05;;;;;;;20.63;19.20;;;11.70;99.90;;;;;;4982470;28;20507;-74
2022/04/13 01:03:36;;;;;;;21.10;19.63;;;11.60;99.90;;;;;;4967040;28;20565;-74
2022/04/13 01:06:05;;;;;;;20.10;18.90;;;11.50;99.90;;;;;;4982421;28;20034;-74
2022/04/13 01:08:32;;;;;;;20.42;18.85;;;11.50;99.90;;;;;;4984140;28;20061;-74
2022/04/13 01:11:00;;;;;;;20.25;18.95;;;11.60;99.90;;;;;;4965205;28;20612;-74
2022/04/13 01:13:27;;;;;;;19.48;18.30;;;11.70;99.90;;;;;;4970452;28;20507;-75
2022/04/13 01:15:54;;;;;;;20.70;19.20;;;11.60;99.90;;;;;;4983309;28;20050;-75
2022/04/13 01:18:20;;;;;;;19.95;18.63;;;11.60;99.90;;;;;;4984061;28;20042;-74
2022/04/13 01:20:52;;;;;;;20.67;19.20;;;11.70;99.90;;;;;;4982150;28;20124;-74
2022/04/13 01:23:24;;;;;;;20.58;19.23;;;11.70;99.90;;;;;;4982231;28;20046;-74
2022/04/13 01:25:52;;;;;;;20.48;19.27;;;11.50;99.90;;;;;;4982606;28;20046;-74
2022/04/13 01:28:19;;;;;;;20.08;18.88;;;11.40;99.90;;;;;;4983701;28;20696;-74
2022/04/13 01:30:46;;;;;;;19.65;18.45;;;11.30;99.90;;;;;;4975198;28;20050;-74
2022/04/13 01:33:13;;;;;;;19.92;18.83;;;11.30;99.90;;;;;;4964710;28;20121;-74
2022/04/13 01:35:40;;;;;;;20.02;18.48;;;11.30;99.90;;;;;;4951842;28;20042;-73
2022/04/13 01:38:07;;;;;;;19.70;18.40;;;11.30;99.90;;;;;;4983316;28;20042;-75
2022/04/13 01:40:35;;;;;;;20.10;18.70;;;11.20;99.90;;;;;;4965057;28;20732;-74
2022/04/13 01:43:01;;;;;;;20.25;18.85;;;11.20;99.90;;;;;;4986348;28;20569;-74
2022/04/13 01:45:28;;;;;;;20.52;18.90;;;11.30;99.90;;;;;;4973353;28;20038;-74
2022/04/13 01:47:55;;;;;;;19.90;18.63;;;11.30;99.90;;;;;;4966295;28;20050;-74
2022/04/13 01:50:22;;;;;;;20.85;19.17;;;11.30;99.90;;;;;;4964239;28;20054;-74
2022/04/13 01:52:49;;;;;;;21.02;19.63;;;11.30;99.90;;;;;;4982757;28;20062;-74
2022/04/13 01:55:17;;;;;;;20.40;18.95;;;11.30;99.90;;;;;;4983064;28;20113;-74
2022/04/13 01:57:44;;;;;;;20.38;19.10;;;11.50;99.90;;;;;;4983147;28;20491;-74
2022/04/13 02:00:12;;;;;;;20.38;19.08;;;11.50;99.90;;;;;;4986123;28;20105;-74
2022/04/13 02:02:39;;;;;;;21.08;19.75;;;11.60;99.90;;;;;;4986878;28;20046;-74
2022/04/13 02:05:07;;;;;;;19.90;18.50;;;11.50;99.90;;;;;;4968890;28;20050;-74
2022/04/13 02:07:34;;;;;;;20.15;18.85;;;11.50;99.90;;;;;;4968869;28;20050;-74
2022/04/13 02:10:01;;;;;;;20.45;18.90;;;11.50;99.90;;;;;;4986292;28;20050;-74
2022/04/13 02:12:28;;;;;;;20.25;19.05;;;11.60;99.90;;;;;;4988653;28;20062;-73
2022/04/13 02:14:55;;;;;;;20.38;18.98;;;11.50;99.90;;;;;;4975103;28;20415;-74
2022/04/13 02:17:22;;;;;;;20.20;18.80;;;11.50;99.90;;;;;;4968925;28;20054;-74
2022/04/13 02:19:49;;;;;;;20.98;19.48;;;11.50;99.90;;;;;;4985092;28;20046;-74
2022/04/13 02:22:15;;;;;;;20.48;19.05;;;11.50;99.90;;;;;;4986124;28;20061;-74
2022/04/13 02:25:04;;;;;;;19.95;18.75;;;11.50;99.90;;;;;;4972545;28;20081;-74
2022/04/13 02:27:32;;;;;;;20.10;18.80;;;11.40;99.90;;;;;;4984866;28;20057;-74
2022/04/13 02:29:59;;;;;;;20.70;19.27;;;11.40;99.90;;;;;;4986633;28;20049;-75
2022/04/13 02:32:26;;;;;;;20.77;19.35;;;11.40;99.90;;;;;;4986114;28;20555;-74
2022/04/13 02:34:53;;;;;;;20.98;19.20;;;11.30;99.90;;;;;;4986302;28;20046;-75
2022/04/13 02:37:20;;;;;;;20.67;19.38;;;11.40;99.90;;;;;;4982956;28;20059;-73
2022/04/13 02:39:47;;;;;;;20.23;18.92;;;11.40;99.90;;;;;;4985278;28;20055;-73
2022/04/13 02:42:15;;;;;;;20.10;18.65;;;11.40;99.90;;;;;;4968465;28;20692;-75
2022/04/13 02:44:42;;;;;;;19.83;18.65;;;11.30;99.90;;;;;;4987176;28;20057;-74
2022/04/13 02:47:09;;;;;;;20.20;18.90;;;11.20;99.90;;;;;;4970311;28;20054;-74
2022/04/13 02:49:37;;;;;;;20.52;19.02;;;11.30;99.90;;;;;;4968889;28;20050;-74
2022/04/13 02:52:04;;;;;;;20.38;19.10;;;11.10;99.90;;;;;;4984986;28;20230;-74
2022/04/13 02:54:31;;;;;;;21.25;19.73;;;11.00;99.90;;;;;;4986744;28;20503;-74
2022/04/13 02:56:58;;;;;;;20.65;19.25;;;11.00;99.90;;;;;;4984802;28;20050;-74
2022/04/13 02:59:25;;;;;;;21.63;19.77;;;11.00;99.90;;;;;;4977407;28;20153;-74
2022/04/13 03:01:53;;;;;;;20.38;19.17;;;11.00;99.90;;;;;;4984756;28;20050;-75
2022/04/13 03:04:27;;;;;;;20.73;19.40;;;10.90;99.90;;;;;;4986520;28;20042;-74
2022/04/13 03:06:55;;;;;;;21.17;19.70;;;10.90;99.90;;;;;;4985286;28;20050;-74
2022/04/13 03:09:22;;;;;;;21.13;19.75;;;10.90;99.90;;;;;;4985189;28;20576;-74
2022/04/13 03:11:48;;;;;;;21.05;19.50;;;10.70;99.90;;;;;;4983764;28;20050;-74
2022/04/13 03:14:15;;;;;;;21.60;20.05;;;10.80;99.90;;;;;;4985120;28;20049;-74
2022/04/13 03:16:42;;;;;;;20.63;19.33;;;10.70;99.90;;;;;;4985235;28;20050;-74
2022/04/13 03:19:09;;;;;;;21.13;19.92;;;10.70;99.90;;;;;;4985711;28;20101;-74
2022/04/13 03:21:35;;;;;;;22.02;20.65;;;10.60;99.90;;;;;;4985319;28;20102;-74
2022/04/13 03:24:02;;;;;;;22.48;20.98;;;10.60;99.90;;;;;;4985009;28;20215;-74
2022/04/13 03:26:29;;;;;;;21.75;20.25;;;10.60;99.90;;;;;;4985461;28;20632;-74
2022/04/13 03:28:56;;;;;;;23.38;21.67;;;10.40;99.90;;;;;;4985224;28;20077;-74
2022/04/13 03:31:23;;;;;;;22.48;20.98;;;10.30;99.90;;;;;;4984874;28;20515;-75
2022/04/13 03:33:49;;;;;;;22.23;20.63;;;10.30;99.90;;;;;;4968607;28;20089;-74
2022/04/13 03:36:18;;;;;;;21.83;20.33;;;10.20;99.90;;;;;;4985286;28;20116;-74
2022/04/13 03:38:45;;;;;;;22.17;20.65;;;10.20;99.90;;;;;;4983788;28;20058;-74
2022/04/13 03:41:12;;;;;;;22.17;20.77;;;10.10;99.90;;;;;;4985075;28;20046;-75
2022/04/13 03:43:39;;;;;;;23.13;21.52;;;10.10;99.90;;;;;;4973598;28;20061;-75
2022/04/13 03:46:05;;;;;;;22.80;21.20;;;10.00;99.90;;;;;;4980601;28;20046;-75
2022/04/13 03:48:34;;;;;;;22.42;21.02;;;9.90;99.90;;;;;;4991296;28;20234;-74
2022/04/13 03:51:00;;;;;;;23.17;21.67;;;9.80;99.90;;;;;;5006689;28;20046;-75
2022/04/13 03:53:27;;;;;;;23.45;21.95;;;9.70;99.90;;;;;;4990601;28;20137;-74
2022/04/13 03:55:54;;;;;;;23.08;21.45;;;9.60;99.90;;;;;;4970938;28;20053;-74
2022/04/13 03:58:21;;;;;;;23.48;21.95;;;9.50;99.90;;;;;;4985785;28;20050;-75
2022/04/13 04:00:48;;;;;;;24.20;22.60;;;9.50;99.90;;;;;;4966977;28;20045;-75
2022/04/13 04:03:15;;;;;;;24.85;23.13;;;9.40;99.90;;;;;;4985229;28;20089;-75
2022/04/13 04:05:41;;;;;;;25.05;23.33;;;9.40;99.90;;;;;;4966790;28;20120;-75
2022/04/13 04:08:08;;;;;;;24.23;22.58;;;9.30;99.90;;;;;;4968565;28;20262;-74
2022/04/13 04:10:36;;;;;;;24.83;23.27;;;9.30;99.90;;;;;;4966820;28;20459;-74
2022/04/13 04:13:03;;;;;;;24.70;23.00;;;9.30;99.90;;;;;;4984810;28;20056;-74
2022/04/13 04:15:31;;;;;;;23.98;22.27;;;9.10;99.90;;;;;;4975052;28;20042;-74
2022/04/13 04:17:57;;;;;;;24.90;23.10;;;9.10;99.90;;;;;;4984788;28;20046;-75
2022/04/13 04:20:24;;;;;;;25.38;23.58;;;9.20;99.90;;;;;;4983040;28;20129;-75
2022/04/13 04:22:51;;;;;;;26.15;24.25;;;9.30;99.90;;;;;;4984528;28;20054;-75
2022/04/13 04:25:18;;;;;;;25.17;23.38;;;9.30;99.90;;;;;;4967368;28;20069;-75
2022/04/13 04:27:44;;;;;;;25.67;23.88;;;9.20;99.90;;;;;;4984000;28;20646;-74
2022/04/13 04:30:11;;;;;;;25.48;23.77;;;8.90;99.90;;;;;;4983627;28;20046;-75
2022/04/13 04:32:38;;;;;;;25.17;23.20;;;9.10;99.90;;;;;;4967626;28;20058;-75
2022/04/13 04:35:06;;;;;;;28.90;27.00;;;8.80;99.90;;;;;;4967598;28;20050;-74
2022/04/13 04:37:33;;;;;;;24.80;23.13;;;8.70;99.90;;;;;;4984151;28;20101;-74
2022/04/13 04:40:00;;;;;;;25.23;23.52;;;8.70;99.90;;;;;;4983620;28;20527;-74
2022/04/13 04:42:27;;;;;;;24.92;23.25;;;8.70;99.90;;;;;;4964806;28;20476;-75
2022/04/13 04:44:58;;;;;;;24.80;23.10;;;8.60;99.90;;;;;;4974223;28;20128;-74
2022/04/13 04:47:26;;;;;;;24.33;22.77;;;8.40;99.90;;;;;;4978703;28;20077;-74
2022/04/13 04:49:53;;;;;;;24.92;23.02;;;8.30;99.90;;;;;;4983917;28;20055;-75
2022/04/13 04:52:20;;;;;;;24.33;22.48;;;8.30;99.90;;;;;;4983581;28;20046;-75
2022/04/13 04:54:47;;;;;;;25.42;23.30;;;8.40;99.90;;;;;;4983766;28;20072;-74
2022/04/13 04:57:13;;;;;;;28.60;26.33;;;8.50;99.90;;;;;;4982454;28;20046;-75
2022/04/13 04:59:40;;;;;;;28.08;26.10;;;8.40;99.90;;;;;;4969819;28;20521;-74
2022/04/13 05:02:07;;;;;;;26.27;24.48;;;8.40;99.90;;;;;;4983120;28;20466;-74
2022/04/13 05:04:34;;;;;;;26.40;24.60;;;8.30;99.90;;;;;;4966049;28;20058;-74
2022/04/13 05:07:00;;;;;;;26.00;23.85;;;8.40;99.90;;;;;;4965683;28;20058;-74
2022/04/13 05:09:28;;;;;;;25.90;24.20;;;8.30;99.90;;;;;;4966067;28;20069;-74
2022/04/13 05:12:01;;;;;;;25.10;23.25;;;8.30;99.90;;;;;;4981313;28;20077;-74
2022/04/13 05:14:29;;;;;;;25.42;23.17;;;8.20;99.90;;;;;;4985881;28;20149;-75
2022/04/13 05:16:56;;;;;;;25.17;23.08;;;8.20;99.90;;;;;;4981852;28;20134;-75
2022/04/13 05:19:22;;;;;;;25.60;23.50;;;8.20;99.90;;;;;;4983156;28;20050;-75
2022/04/13 05:21:49;;;;;;;24.60;23.10;;;8.10;99.90;;;;;;4982957;28;20046;-74
2022/04/13 05:24:16;;;;;;;25.40;23.73;;;8.10;99.90;;;;;;4966082;28;20124;-74
2022/04/13 05:26:43;;;;;;;23.77;22.15;;;8.20;99.90;;;;;;4981864;28;20050;-75
2022/04/13 05:29:09;;;;;;;24.50;22.88;;;8.20;99.90;;;;;;4972551;28;20038;-74
2022/04/13 05:31:36;;;;;;;23.27;21.38;;;8.10;99.90;;;;;;4965388;28;20046;-74
2022/04/13 05:34:03;;;;;;;23.88;22.13;;;8.10;99.90;;;;;;4968017;28;20065;-75
2022/04/13 05:36:30;;;;;;;22.90;21.25;;;8.10;99.90;;;;;;4985867;28;20101;-74
2022/04/13 05:38:56;;;;;;;25.40;23.02;;;8.20;99.90;;;;;;4986994;28;20054;-75
2022/04/13 05:41:23;;;;;;;24.58;22.60;;;8.20;99.90;;;;;;4985316;28;20046;-75
2022/04/13 05:43:50;;;;;;;24.42;22.60;;;8.30;99.90;;;;;;4983970;28;20070;-74
2022/04/13 05:46:17;;;;;;;24.33;22.65;;;8.40;99.90;;;;;;4968133;28;20050;-75
2022/04/13 05:48:44;;;;;;;23.13;21.73;;;8.40;99.90;;;;;;4990312;28;20030;-75
2022/04/13 05:51:10;;;;;;;23.38;21.77;;;8.50;99.90;;;;;;4967717;28;20047;-74
2022/04/13 05:53:37;;;;;;;23.15;21.58;;;8.60;99.90;;;;;;4987812;28;20051;-75
2022/04/13 05:56:05;;;;;;;23.95;22.23;;;8.70;99.90;;;;;;4967484;28;20101;-74
2022/04/13 05:58:32;;;;;;;25.08;22.75;;;8.60;99.90;;;;;;4986972;28;20149;-74
2022/04/13 06:00:58;;;;;;;25.15;23.17;;;8.70;99.90;;;;;;4985853;28;20042;-74
2022/04/13 06:03:25;;;;;;;26.60;23.52;;;8.80;99.90;;;;;;4987104;28;20042;-74
2022/04/13 06:06:10;;;;;;;22.55;20.83;;;8.90;99.90;;;;;;4986646;28;20046;-75
2022/04/13 06:08:37;;;;;;;23.67;21.67;;;9.20;99.90;;;;;;4985434;28;20046;-75
2022/04/13 06:11:03;;;;;;;23.75;21.95;;;9.40;99.90;;;;;;4982932;28;20466;-75
2022/04/13 06:13:31;;;;;;;24.33;22.45;;;9.50;99.90;;;;;;4961788;28;20344;-75
2022/04/13 06:15:58;;;;;;;23.67;22.08;;;9.70;99.90;;;;;;4985897;28;20054;-75
2022/04/13 06:18:25;;;;;;;23.10;21.27;;;9.90;99.90;;;;;;4987230;28;20046;-75
2022/04/13 06:20:52;;;;;;;22.90;21.40;;;10.20;99.90;;;;;;4984848;28;20054;-75
2022/04/13 06:23:18;;;;;;;22.25;20.77;;;10.50;99.90;;;;;;4987064;28;20628;-74
2022/04/13 06:25:45;;;;;;;22.05;20.67;;;10.80;99.90;;;;;;4986537;28;20109;-75
2022/04/13 06:28:12;;;;;;;22.08;20.48;;;11.10;99.90;;;;;;4976260;28;20054;-75
2022/04/13 06:30:39;;;;;;;22.98;21.23;;;11.30;99.90;;;;;;4968291;28;20412;-75
2022/04/13 06:33:06;;;;;;;23.13;21.67;;;11.50;99.90;;;;;;4986274;28;20132;-75
2022/04/13 06:35:34;;;;;;;23.27;21.27;;;11.80;99.90;;;;;;4968431;28;20097;-74
2022/04/13 06:38:00;;;;;;;22.98;21.42;;;12.00;99.90;;;;;;4986456;28;20046;-74
2022/04/13 06:40:27;;;;;;;24.88;23.15;;;12.20;99.90;;;;;;4984528;28;20054;-75
2022/04/13 06:42:55;;;;;;;23.08;21.58;;;12.50;99.90;;;;;;4988049;28;20046;-74
2022/04/13 06:45:22;;;;;;;22.52;21.15;;;12.80;99.90;;;;;;4986079;28;20137;-75
2022/04/13 06:47:50;;;;;;;23.50;21.70;;;13.10;99.90;;;;;;4985894;28;20042;-74
2022/04/13 06:50:17;;;;;;;24.08;22.77;;;13.20;99.90;;;;;;4984882;28;20424;-74
2022/04/13 06:52:44;;;;;;;23.23;21.52;;;13.30;99.90;;;;;;4985847;28;20050;-74
2022/04/13 06:55:11;;;;;;;22.35;21.08;;;13.40;99.90;;;;;;4985950;28;20046;-75
2022/04/13 06:57:41;;;;;;;21.85;20.45;;;13.50;99.90;;;;;;4963142;28;20054;-75
2022/04/13 07:00:10;;;;;;;21.95;20.30;;;13.60;99.90;;;;;;4983418;28;20046;-74
2022/04/13 07:02:38;;;;;;;22.95;21.65;;;13.80;99.90;;;;;;4985768;28;20054;-75
2022/04/13 07:05:26;;;;;;;24.08;22.33;;;14.10;99.90;;;;;;4958034;28;20104;-75
2022/04/13 07:07:54;;;;;;;23.13;21.83;;;14.30;99.90;;;;;;4986578;28;20090;-73
2022/04/13 07:10:21;;;;;;;24.15;22.90;;;14.40;99.90;;;;;;4986120;28;20069;-75
2022/04/13 07:12:48;;;;;;;21.70;20.27;;;14.70;99.90;;;;;;4972253;28;20069;-75
2022/04/13 07:15:18;;;;;;;21.70;20.23;;;15.10;99.90;;;;;;4985512;28;20042;-74
2022/04/13 07:17:46;;;;;;;21.75;20.45;;;15.50;99.90;;;;;;4985772;28;20234;-75
2022/04/13 07:20:14;;;;;;;21.38;19.98;;;15.60;99.90;;;;;;4984531;28;20058;-76
2022/04/13 07:22:49;;;;;;;21.38;20.08;;;16.00;99.90;;;;;;4984632;28;20480;-76
2022/04/13 07:25:17;;;;;;;21.15;19.95;;;16.60;99.90;;;;;;4985195;28;20050;-76
2022/04/13 07:27:45;;;;;;;21.50;20.20;;;17.10;99.90;;;;;;4973118;28;20042;-74
2022/04/13 07:30:13;;;;;;;23.40;22.15;;;17.60;99.90;;;;;;4984953;28;20385;-75
2022/04/13 07:32:43;;;;;;;24.05;22.35;;;18.00;99.90;;;;;;4985473;28;20050;-75
2022/04/13 07:35:10;;;;;;;22.90;21.30;;;18.20;99.90;;;;;;4985550;28;20054;-74
2022/04/13 07:37:39;;;;;;;22.70;21.33;;;18.30;99.90;;;;;;4985100;28;20672;-75
2022/04/13 07:40:14;;;;;;;23.27;21.35;;;18.20;99.90;;;;;;4984869;28;20058;-76
2022/04/13 07:42:41;;;;;;;24.02;21.88;;;18.20;99.90;;;;;;4988119;28;20426;-76
2022/04/13 07:45:09;;;;;;;23.25;22.00;;;18.20;99.90;;;;;;4983343;28;20558;-76
2022/04/13 07:47:36;;;;;;;22.20;20.67;;;18.40;99.90;;;;;;4985531;28;20252;-75
2022/04/13 07:50:04;;;;;;;22.73;21.38;;;18.40;99.90;;;;;;4966508;28;20050;-75
2022/04/13 07:52:35;;;;;;;23.77;22.40;;;18.60;99.90;;;;;;4984217;28;20050;-74
2022/04/13 07:55:03;;;;;;;24.17;22.17;;;18.90;99.90;;;;;;4985056;28;20062;-74
2022/04/13 07:57:29;;;;;;;24.60;22.85;;;19.10;99.90;;;;;;4984082;28;20519;-74
2022/04/13 07:59:56;;;;;;;22.75;21.15;;;19.20;99.90;;;;;;4985222;28;20069;-75
2022/04/13 08:02:23;;;;;;;22.85;21.45;;;19.30;99.90;;;;;;4984931;28;20085;-75
2022/04/13 08:04:50;;;;;;;23.15;21.55;;;19.30;99.90;;;;;;4984704;28;20050;-74
2022/04/13 08:07:17;;;;;;;23.58;21.40;;;19.50;99.90;;;;;;4966830;28;20054;-76
2022/04/13 08:09:44;;;;;;;22.77;20.98;;;19.70;99.90;;;;;;4984269;28;20108;-75
2022/04/13 08:12:10;;;;;;;23.23;21.58;;;19.60;99.90;;;;;;4983395;28;20515;-75
2022/04/13 08:14:37;;;;;;;23.25;21.42;;;19.70;99.90;;;;;;4982334;28;20130;-75
2022/04/13 08:17:05;;;;;;;22.40;20.83;;;19.70;99.90;;;;;;4983636;28;20073;-74
2022/04/13 08:19:31;;;;;;;22.15;20.67;;;19.70;99.90;;;;;;4983809;28;20128;-74
2022/04/13 08:21:58;;;;;;;24.55;22.90;;;19.80;99.90;;;;;;4965930;28;20046;-75
2022/04/13 08:24:25;;;;;;;23.90;22.15;;;19.90;99.90;;;;;;4983626;28;20053;-74
2022/04/13 08:26:52;;;;;;;22.58;21.27;;;20.00;99.90;;;;;;4968742;28;20458;-74
2022/04/13 08:29:19;;;;;;;23.25;21.70;;;20.20;99.90;;;;;;4984402;28;20054;-75
2022/04/13 08:31:46;;;;;;;24.48;22.55;;;20.50;99.90;;;;;;4967061;28;20109;-75
2022/04/13 08:34:13;;;;;;;24.25;22.50;;;20.50;99.90;;;;;;4983673;28;20058;-76
2022/04/13 08:36:40;;;;;;;33.90;23.10;;;20.30;99.90;;;;;;4984041;28;20835;-75
2022/04/13 08:39:13;;;;;;;24.52;22.83;;;20.10;99.90;;;;;;4964813;28;20105;-74
2022/04/13 08:42:06;;;;;;;24.80;22.63;;;20.20;99.90;;;;;;4971882;28;20412;-74
2022/04/13 08:44:46;;;;;;;24.92;23.05;;;20.10;99.90;;;;;;4971939;28;20050;-76
2022/04/13 08:47:17;;;;;;;24.00;22.33;;;20.30;99.90;;;;;;4964187;28;20046;-76
2022/04/13 08:49:45;;;;;;;24.90;23.02;;;20.30;99.90;;;;;;4982987;28;20046;-75
2022/04/13 08:52:14;;;;;;;24.58;22.77;;;20.40;99.90;;;;;;4982421;28;20042;-74
2022/04/13 08:55:09;;;;;;;24.35;22.45;;;20.40;99.90;;;;;;4984524;28;20105;-74
2022/04/13 08:57:45;;;;;;;26.50;24.42;;;20.60;99.90;;;;;;4983802;28;20050;-74
2022/04/13 09:00:17;;;;;;;26.65;24.73;;;20.70;99.90;;;;;;4981912;28;20050;-74
2022/04/13 09:03:11;;;;;;;27.25;24.92;;;21.10;99.90;;;;;;4982450;28;20534;-76
2022/04/13 09:05:59;;;;;;;27.15;25.00;;;21.40;99.90;;;;;;4983211;28;20121;-75
2022/04/13 09:08:28;;;;;;;27.83;25.48;;;21.40;99.90;;;;;;4967215;28;20061;-73
2022/04/13 09:10:55;;;;;;;28.17;25.65;;;21.40;99.90;;;;;;4969652;28;20113;-76
2022/04/13 09:13:24;;;;;;;27.42;25.52;;;21.30;99.90;;;;;;4988396;28;20368;-74
2022/04/13 09:15:53;;;;;;;27.10;25.48;;;21.50;99.90;;;;;;4986902;28;20649;-76
2022/04/13 09:18:20;;;;;;;29.17;26.73;;;21.70;99.90;;;;;;4986911;28;20082;-75
2022/04/13 09:20:47;;;;;;;29.08;26.75;;;21.80;99.90;;;;;;4987038;28;20042;-75
2022/04/13 09:23:15;;;;;;;28.58;26.70;;;21.70;99.90;;;;;;4988708;28;20058;-75
2022/04/13 09:25:43;;;;;;;28.35;26.33;;;21.70;99.90;;;;;;4987107;28;20117;-75
2022/04/13 09:28:10;;;;;;;28.52;26.33;;;22.00;99.90;;;;;;5001915;23;20050;-71
2022/04/13 09:30:37;;;;;;;30.25;27.63;;;22.10;99.90;;;;;;4988735;28;20046;-70
2022/04/13 09:33:04;;;;;;;28.67;26.45;;;22.20;99.90;;;;;;4984870;28;20046;-71
2022/04/13 09:35:33;;;;;;;29.02;26.92;;;22.20;99.90;;;;;;4956590;28;20070;-71
2022/04/13 09:38:07;;;;;;;29.17;26.98;;;22.00;99.90;;;;;;4986353;28;20104;-71
2022/04/13 09:40:37;;;;;;;30.58;28.30;;;22.10;99.90;;;;;;4968819;28;20053;-71
2022/04/13 09:43:15;;;;;;;30.75;28.35;;;21.80;99.90;;;;;;5001308;28;20469;-71
2022/04/13 09:45:44;;;;;;;29.45;27.17;;;21.90;99.90;;;;;;5003678;28;20073;-72
2022/04/13 09:48:23;;;;;;;30.75;28.55;;;22.10;99.90;;;;;;4986939;28;20053;-73
2022/04/13 09:50:51;;;;;;;31.52;29.23;;;22.20;99.90;;;;;;4968665;28;20105;-72
2022/04/13 09:53:20;;;;;;;31.27;28.75;;;22.50;99.90;;;;;;5003900;28;20478;-73
2022/04/13 09:55:53;;;;;;;29.60;27.20;;;22.60;99.90;;;;;;5003803;28;20401;-73
2022/04/13 09:58:30;;;;;;;30.65;28.38;;;22.80;99.90;;;;;;4997676;28;20057;-73
2022/04/13 10:01:02;;;;;;;30.67;27.88;;;22.70;99.90;;;;;;5005349;28;20049;-73
2022/04/13 10:03:29;;;;;;;29.77;27.23;;;22.70;99.90;;;;;;4996243;28;20057;-73
2022/04/13 10:05:57;;;;;;;29.98;27.67;;;22.70;99.90;;;;;;4985791;28;20069;-72
2022/04/13 10:08:30;;;;;;;30.30;27.80;;;22.50;99.90;;;;;;4986251;28;20053;-73
2022/04/13 10:10:59;;;;;;;30.75;28.42;;;22.60;99.90;;;;;;4985094;28;20103;-72
2022/04/13 10:13:36;;;;;;;30.63;28.23;;;22.60;99.90;;;;;;4994376;28;20163;-73
2022/04/13 10:16:07;;;;;;;30.77;28.38;;;22.70;99.90;;;;;;4992774;28;20084;-73
2022/04/13 10:18:54;;;;;;;30.80;28.02;;;22.80;99.90;;;;;;5003410;28;20100;-73
2022/04/13 10:21:51;;;;;;;31.23;29.00;;;22.80;99.90;;;;;;4983799;28;20201;-72
2022/04/13 10:24:21;;;;;;;29.73;27.20;;;22.60;99.90;;;;;;4986605;28;20053;-73
2022/04/13 10:27:17;;;;;;;31.15;28.27;;;22.60;99.90;;;;;;5009406;28;20045;-72
2022/04/13 10:29:46;;;;;;;30.33;27.48;;;22.60;99.90;;;;;;4991210;28;20054;-73
2022/04/13 10:32:14;;;;;;;31.45;28.80;;;22.60;99.90;;;;;;5002930;28;20389;-73
2022/04/13 10:34:45;;;;;;;29.98;27.55;;;22.30;99.90;;;;;;4985982;28;20049;-73
2022/04/13 10:37:13;;;;;;;29.00;26.27;;;22.30;99.90;;;;;;4984564;28;20054;-73
2022/04/13 10:39:41;;;;;;;30.05;27.42;;;22.20;99.90;;;;;;4985424;28;20111;-73
2022/04/13 10:42:10;;;;;;;31.13;28.83;;;22.20;99.90;;;;;;5002687;28;20440;-73
2022/04/13 10:44:37;;;;;;;31.38;28.13;;;22.40;99.90;;;;;;4999266;28;20698;-74
2022/04/13 10:47:07;;;;;;;30.80;28.58;;;22.60;99.90;;;;;;5005071;28;20068;-73
2022/04/13 10:49:56;;;;;;;32.33;29.63;;;22.50;99.90;;;;;;4985227;28;20120;-73
2022/04/13 10:52:34;;;;;;;30.90;28.50;;;22.40;99.90;;;;;;4973612;28;20053;-73
2022/04/13 10:55:07;;;;;;;31.23;28.52;;;22.40;99.90;;;;;;4985675;28;20052;-74
2022/04/13 10:57:52;;;;;;;31.52;28.85;;;22.50;99.90;;;;;;4996410;28;20558;-73
2022/04/13 11:00:21;;;;;;;32.08;29.58;;;22.50;99.90;;;;;;4986453;28;20049;-73
2022/04/13 11:02:57;;;;;;;31.02;28.73;;;22.50;99.90;;;;;;4985365;28;20057;-73
2022/04/13 11:05:25;;;;;;;32.03;29.15;;;22.60;99.90;;;;;;5002352;28;20058;-73
2022/04/13 11:08:14;;;;;;;30.48;28.23;;;22.60;99.90;;;;;;5002836;28;20141;-73
2022/04/13 11:10:42;;;;;;;30.50;28.00;;;22.50;99.90;;;;;;4983812;28;20116;-73
2022/04/13 11:13:09;;;;;;;32.72;29.98;;;22.40;99.90;;;;;;4986058;28;20092;-74
2022/04/13 11:15:45;;;;;;;32.28;30.02;;;22.30;99.90;;;;;;4995946;28;20057;-73
2022/04/13 11:18:17;;;;;;;33.25;30.67;;;22.30;99.90;;;;;;4985019;28;20049;-73
2022/04/13 11:20:59;;;;;;;32.22;29.13;;;22.50;99.90;;;;;;4984186;28;20360;-73
2022/04/13 11:23:52;;;;;;;31.85;29.42;;;22.80;99.90;;;;;;4984936;28;20123;-73
2022/04/13 11:26:35;;;;;;;30.02;27.45;;;22.80;99.90;;;;;;4985799;28;20428;-73
2022/04/13 11:29:23;;;;;;;32.20;29.55;;;22.80;99.90;;;;;;4990064;28;20870;-73
2022/04/13 11:31:59;;;;;;;34.97;31.58;;;22.90;99.90;;;;;;4983018;28;20112;-73
2022/04/13 11:34:41;;;;;;;33.10;30.80;;;22.90;99.90;;;;;;5002856;28;20073;-73
2022/04/13 11:37:11;;;;;;;34.30;31.65;;;22.90;99.90;;;;;;4983569;28;20081;-73
2022/04/13 11:39:48;;;;;;;35.55;32.45;;;23.00;99.90;;;;;;5002406;28;20042;-73
2022/04/13 11:42:21;;;;;;;32.92;30.60;;;23.10;99.90;;;;;;4978854;28;20049;-73
2022/04/13 11:44:50;;;;;;;33.75;31.13;;;23.20;99.90;;;;;;4991672;28;20168;-73
2022/04/13 11:47:18;;;;;;;32.60;30.13;;;23.30;99.90;;;;;;5001706;28;20053;-73
2022/04/13 11:50:02;;;;;;;31.65;29.25;;;23.40;99.90;;;;;;4984297;28;20053;-74
2022/04/13 11:52:55;;;;;;;34.17;31.67;;;23.20;99.90;;;;;;4982520;28;20050;-73
2022/04/13 11:55:26;;;;;;;33.88;31.35;;;23.20;99.90;;;;;;4984651;28;20046;-74
2022/04/13 11:57:52;;;;;;;31.00;29.00;;;23.30;99.90;;;;;;5012162;28;20247;-73
2022/04/13 12:00:44;;;;;;;32.35;30.05;;;23.30;99.90;;;;;;5002517;28;20111;-74
2022/04/13 12:03:15;;;;;;;76.57;36.17;;;23.50;99.90;;;;;;4989046;28;20052;-74
2022/04/13 12:05:44;;;;;;;31.42;29.27;;;23.30;99.90;;;;;;4984055;28;20093;-74
2022/04/13 12:08:13;;;;;;;33.15;30.95;;;23.40;99.90;;;;;;4984441;28;20397;-74
2022/04/13 12:10:48;;;;;;;33.70;31.05;;;23.50;99.90;;;;;;4982640;28;20085;-74
2022/04/13 12:13:16;;;;;;;32.50;30.25;;;23.50;99.90;;;;;;4983502;28;20107;-74
2022/04/13 12:15:51;;;;;;;32.45;30.17;;;23.50;99.90;;;;;;4994333;28;20058;-74
2022/04/13 12:18:22;;;;;;;33.45;31.25;;;23.60;99.90;;;;;;4993553;28;20804;-74
2022/04/13 12:20:50;;;;;;;33.67;31.17;;;23.40;99.90;;;;;;5000799;28;20104;-74
2022/04/13 12:23:21;;;;;;;32.47;30.10;;;23.30;99.90;;;;;;5001666;28;20088;-74
2022/04/13 12:25:53;;;;;;;32.45;30.13;;;23.30;99.90;;;;;;4984307;28;20062;-74
2022/04/13 12:28:22;;;;;;;32.80;30.63;;;23.60;99.90;;;;;;5014948;28;20089;-74
2022/04/13 12:30:59;;;;;;;33.17;30.60;;;23.40;99.90;;;;;;4992191;28;20041;-73
2022/04/13 12:33:29;;;;;;;32.47;29.95;;;23.40;99.30;;;;;;4984194;28;20045;-73
2022/04/13 12:36:01;;;;;;;30.63;28.33;;;23.30;99.90;;;;;;4974483;28;20208;-72
2022/04/13 12:38:54;;;;;;;31.88;29.70;;;23.40;99.20;;;;;;4991340;28;20046;-73
2022/04/13 12:41:22;;;;;;;32.78;30.20;;;23.40;99.90;;;;;;4979735;28;20050;-72